Time;durP1;ratioP1;P1;durP2;ratioP2;P2;SDS_P1;SDS_P2;PMS_P1;PMS_P2;Temp;Humidity;BMP_temperature;BMP_pressure;BME280_temperature;BME280_humidity;BME280_pressure;Samples;Min_cycle;Max_cycle;Signal;HPM_P1;HPM_P2
2020/12/23 00:01:46;;;;;;;6.70;3.50;;;;;;;7.67;54.50;102586.02;1755447;81;21283;-48
2020/12/23 00:04:15;;;;;;;5.85;3.70;;;;;;;7.73;54.11;102584.83;1755260;81;21097;-47
2020/12/23 00:06:44;;;;;;;5.62;3.60;;;;;;;7.63;54.05;102592.39;1757268;81;21180;-47
2020/12/23 00:09:12;;;;;;;5.62;3.50;;;;;;;7.58;53.96;102585.86;1762893;80;21291;-47
2020/12/23 00:11:40;;;;;;;4.60;3.72;;;;;;;7.55;53.98;102588.37;1765556;80;21541;-47
2020/12/23 00:14:08;;;;;;;5.42;4.10;;;;;;;7.53;54.18;102590.47;1764491;80;21160;-46
2020/12/23 00:16:37;;;;;;;4.47;3.67;;;;;;;7.51;54.40;102590.86;1763607;80;21120;-47
2020/12/23 00:19:05;;;;;;;5.97;3.80;;;;;;;7.50;54.64;102586.09;1764687;80;21144;-46
2020/12/23 00:21:33;;;;;;;6.87;4.28;;;;;;;7.50;54.79;102584.80;1774553;80;21290;-46
2020/12/23 00:24:03;;;;;;;5.53;3.25;;;;;;;7.50;54.95;102586.09;1766656;80;21566;-46
2020/12/23 00:26:32;;;;;;;4.30;3.52;;;;;;;7.53;54.66;102582.28;1764504;80;21139;-46
2020/12/23 00:29:01;;;;;;;4.62;3.60;;;;;;;7.55;54.45;102578.01;1768878;80;21104;-46
2020/12/23 00:31:29;;;;;;;3.90;3.15;;;;;;;7.61;54.15;102582.42;1767434;80;21152;-46
2020/12/23 00:33:58;;;;;;;5.47;3.50;;;;;;;7.57;53.99;102584.50;1767051;80;21592;-46
2020/12/23 00:36:26;;;;;;;5.55;4.05;;;;;;;7.37;54.39;102580.23;1766678;80;21203;-47
2020/12/23 00:38:54;;;;;;;4.75;3.67;;;;;;;7.36;54.59;102575.89;1766864;80;21627;-46
2020/12/23 00:41:23;;;;;;;7.17;3.87;;;;;;;7.35;54.98;102577.62;1765976;80;21108;-46
2020/12/23 00:43:51;;;;;;;6.28;4.33;;;;;;;7.35;55.25;102578.05;1763187;80;21104;-46
2020/12/23 00:46:19;;;;;;;5.08;4.03;;;;;;;7.34;55.39;102584.05;1769466;80;21105;-46
2020/12/23 00:48:47;;;;;;;4.95;3.40;;;;;;;7.31;55.50;102581.00;1768233;80;21159;-46
2020/12/23 00:51:16;;;;;;;5.12;3.90;;;;;;;7.31;55.55;102579.70;1766589;80;21151;-47
2020/12/23 00:53:45;;;;;;;4.33;3.75;;;;;;;7.32;55.79;102578.84;1765235;80;21136;-47
2020/12/23 00:56:14;;;;;;;5.53;4.20;;;;;;;7.36;55.86;102584.53;1770696;80;21580;-47
2020/12/23 00:58:43;;;;;;;7.10;4.40;;;;;;;7.39;55.91;102583.73;1769633;80;21108;-46
2020/12/23 01:01:11;;;;;;;6.08;3.77;;;;;;;7.44;55.79;102577.36;1760040;80;21285;-46
2020/12/23 01:03:41;;;;;;;6.10;4.33;;;;;;;7.48;55.69;102574.83;1762035;80;21593;-47
2020/12/23 01:06:10;;;;;;;4.92;4.33;;;;;;;7.49;55.49;102568.82;1767381;80;21152;-47
2020/12/23 01:08:40;;;;;;;5.28;4.12;;;;;;;7.51;55.41;102573.61;1764352;80;21132;-46
2020/12/23 01:11:10;;;;;;;4.80;3.65;;;;;;;7.52;55.30;102571.49;1758551;81;21286;-46
2020/12/23 01:13:38;;;;;;;5.15;3.58;;;;;;;7.49;55.16;102571.41;1758371;81;21275;-47
2020/12/23 01:16:07;;;;;;;4.08;3.67;;;;;;;7.47;55.07;102567.92;1758364;81;21125;-46
2020/12/23 01:18:35;;;;;;;4.87;4.08;;;;;;;7.44;55.18;102560.52;1756349;81;21140;-46
2020/12/23 01:21:03;;;;;;;4.92;3.80;;;;;;;7.41;55.20;102560.03;1755392;81;21140;-46
2020/12/23 01:23:31;;;;;;;4.60;3.70;;;;;;;7.41;55.35;102557.44;1755990;81;21125;-46
2020/12/23 01:25:59;;;;;;;5.83;3.92;;;;;;;7.41;55.65;102554.85;1765142;81;21259;-47
2020/12/23 01:28:28;;;;;;;4.80;3.92;;;;;;;7.42;55.62;102561.77;1758261;81;21329;-46
2020/12/23 01:30:56;;;;;;;5.75;3.77;;;;;;;7.45;55.66;102554.06;1768882;81;21132;-47
2020/12/23 01:33:25;;;;;;;4.35;3.27;;;;;;;7.49;55.55;102544.22;1757295;81;21168;-46
2020/12/23 01:35:53;;;;;;;6.15;4.25;;;;;;;7.53;55.42;102540.84;1757460;81;21282;-46
2020/12/23 01:38:21;;;;;;;6.67;3.75;;;;;;;7.72;54.78;102531.28;1757269;81;21561;-46
2020/12/23 01:41:03;;;;;;;4.83;3.67;;;;;;;7.84;54.40;102531.49;1756888;81;21144;-47
2020/12/23 01:43:31;;;;;;;;;;;;;;;7.88;54.10;102534.58;1758807;81;21141;-46
2020/12/23 01:45:59;;;;;;;4.58;3.35;;;;;;;7.89;53.69;102540.20;1755441;81;20149;-46
2020/12/23 01:48:32;;;;;;;5.53;3.75;;;;;;;7.87;53.73;102537.16;1755427;81;21279;-46
2020/12/23 01:51:03;;;;;;;3.90;3.37;;;;;;;7.76;54.02;102531.78;1751801;81;21148;-46
2020/12/23 01:53:32;;;;;;;6.75;3.83;;;;;;;7.61;54.59;102534.08;1758507;81;21117;-46
2020/12/23 01:56:01;;;;;;;4.90;3.47;;;;;;;7.55;54.75;102522.31;1758942;81;21544;-46
2020/12/23 01:58:30;;;;;;;6.37;3.10;;;;;;;7.54;54.73;102519.29;1758595;81;21152;-47
2020/12/23 02:00:58;;;;;;;4.90;3.62;;;;;;;7.54;54.84;102520.59;1758560;81;21278;-46
2020/12/23 02:03:27;;;;;;;6.20;3.10;;;;;;;7.55;54.99;102522.73;1758325;81;21270;-47
2020/12/23 02:05:56;;;;;;;5.28;3.52;;;;;;;7.58;54.91;102517.20;1756123;81;21294;-47
2020/12/23 02:08:24;;;;;;;4.03;3.02;;;;;;;7.60;54.75;102520.70;1736602;80;21181;-46
2020/12/23 02:10:52;;;;;;;4.03;3.47;;;;;;;7.64;54.61;102523.79;1755693;81;21168;-46
2020/12/23 02:13:36;;;;;;;4.92;3.60;;;;;;;7.67;54.41;102522.53;1765253;81;21128;-46
2020/12/23 02:16:06;;;;;;;4.12;3.27;;;;;;;7.68;54.22;102521.70;1712740;83;21730;-47
2020/12/23 02:18:34;;;;;;;3.80;3.25;;;;;;;7.67;54.14;102519.94;1707936;83;21186;-46
2020/12/23 02:21:02;;;;;;;5.00;3.67;;;;;;;7.66;54.06;102513.03;1679818;85;21178;-46
2020/12/23 02:23:30;;;;;;;6.95;4.33;;;;;;;7.66;54.40;102518.63;1703849;83;21320;-47
2020/12/23 02:25:59;;;;;;;4.62;3.80;;;;;;;7.64;55.05;102513.42;1669365;85;21368;-46
2020/12/23 02:28:28;;;;;;;4.97;3.75;;;;;;;7.64;55.56;102506.95;1669076;84;21175;-47
2020/12/23 02:31:02;;;;;;;5.25;3.95;;;;;;;7.63;55.82;102505.19;1705556;83;21158;-46
2020/12/23 02:33:30;;;;;;;5.90;3.95;;;;;;;7.64;56.03;102504.36;1709842;83;21197;-46
2020/12/23 02:35:58;;;;;;;4.72;4.20;;;;;;;7.68;56.20;102504.86;1709082;83;21610;-47
2020/12/23 02:38:26;;;;;;;5.37;4.47;;;;;;;7.73;56.27;102501.06;1709054;83;21181;-46
2020/12/23 02:40:55;;;;;;;7.12;4.45;;;;;;;7.78;56.23;102500.29;1707037;83;21178;-47
2020/12/23 02:43:23;;;;;;;6.15;4.22;;;;;;;7.81;56.16;102496.44;1669294;85;21237;-46
2020/12/23 02:45:51;;;;;;;4.28;3.40;;;;;;;7.82;55.86;102490.42;1706460;83;21154;-47
2020/12/23 02:48:20;;;;;;;4.50;4.05;;;;;;;8.02;55.11;102486.43;1669394;85;21175;-47
2020/12/23 02:50:48;;;;;;;4.30;3.50;;;;;;;7.93;55.12;102490.61;1705019;83;21312;-46
2020/12/23 02:53:18;;;;;;;4.80;3.77;;;;;;;7.83;55.07;102491.30;1683236;84;21299;-46
2020/12/23 02:55:47;;;;;;;3.90;3.27;;;;;;;7.80;55.25;102492.12;1751678;81;21137;-46
2020/12/23 02:58:15;;;;;;;5.83;3.80;;;;;;;7.76;55.40;102483.84;1758592;81;21124;-47
2020/12/23 03:00:45;;;;;;;5.00;3.65;;;;;;;7.75;55.44;102487.71;1758267;81;21132;-47
2020/12/23 03:03:15;;;;;;;5.08;4.08;;;;;;;7.73;55.46;102483.77;1762233;81;21168;-46
2020/12/23 03:05:44;;;;;;;4.67;3.87;;;;;;;7.74;55.78;102477.76;1755791;81;21275;-47
2020/12/23 03:08:12;;;;;;;6.37;3.27;;;;;;;7.76;55.81;102473.48;1751649;81;21144;-46
2020/12/23 03:10:41;;;;;;;3.98;3.30;;;;;;;7.81;55.73;102477.00;1758395;80;21295;-46
2020/12/23 03:13:10;;;;;;;4.30;3.50;;;;;;;7.86;55.61;102471.90;1758526;81;21283;-46
2020/12/23 03:15:39;;;;;;;4.17;3.42;;;;;;;7.88;55.53;102476.27;1758485;81;21124;-47
2020/12/23 03:18:07;;;;;;;3.72;3.33;;;;;;;7.90;55.41;102468.09;1758607;81;21278;-46
2020/12/23 03:20:36;;;;;;;4.40;3.60;;;;;;;7.90;55.34;102459.02;1762768;81;21545;-46
2020/12/23 03:23:04;;;;;;;3.77;3.10;;;;;;;7.89;55.43;102465.03;1758021;81;21116;-46
2020/12/23 03:25:32;;;;;;;3.90;3.50;;;;;;;7.87;55.35;102461.55;1758265;81;21160;-47
2020/12/23 03:28:00;;;;;;;7.65;3.70;;;;;;;7.86;55.16;102457.23;1758526;81;21136;-46
2020/12/23 03:30:29;;;;;;;5.22;4.03;;;;;;;7.87;55.29;102462.84;1767513;81;21093;-46
2020/12/23 03:32:57;;;;;;;3.95;2.90;;;;;;;7.87;55.67;102460.25;1757296;81;21587;-47
2020/12/23 03:35:25;;;;;;;5.72;3.27;;;;;;;7.87;55.58;102460.25;1762147;81;21180;-46
2020/12/23 03:37:54;;;;;;;4.87;3.50;;;;;;;8.14;54.80;102453.33;1758020;81;21262;-47
2020/12/23 03:40:22;;;;;;;4.15;3.12;;;;;;;8.23;54.62;102454.36;1758788;81;21306;-47
2020/12/23 03:42:51;;;;;;;4.35;3.37;;;;;;;8.29;54.57;102463.09;1756510;81;21192;-47
2020/12/23 03:45:19;;;;;;;5.92;3.58;;;;;;;8.32;54.42;102454.08;1755214;81;21162;-47
2020/12/23 03:47:47;;;;;;;4.28;3.17;;;;;;;8.34;54.20;102458.86;1755292;81;21271;-47
2020/12/23 03:50:15;;;;;;;3.83;2.92;;;;;;;8.34;54.10;102456.27;1757526;81;21121;-47
2020/12/23 03:52:43;;;;;;;4.12;3.20;;;;;;;8.34;54.13;102458.86;1755397;81;21140;-46
2020/12/23 03:55:12;;;;;;;3.77;2.75;;;;;;;8.29;54.07;102454.02;1755062;81;21286;-47
2020/12/23 03:57:40;;;;;;;4.25;3.42;;;;;;;8.26;54.13;102453.99;1756377;81;21144;-46
2020/12/23 04:00:10;;;;;;;3.42;3.00;;;;;;;8.21;54.13;102453.47;1758459;81;21672;-46
2020/12/23 04:02:41;;;;;;;4.17;3.30;;;;;;;8.20;54.29;102451.70;1758550;81;21168;-47
2020/12/23 04:05:10;;;;;;;6.00;3.50;;;;;;;8.22;54.45;102457.79;1759105;81;21565;-47
2020/12/23 04:07:39;;;;;;;4.62;3.70;;;;;;;8.22;54.80;102455.20;1761227;81;21184;-46
2020/12/23 04:10:08;;;;;;;7.80;3.90;;;;;;;8.27;55.08;102449.23;1757515;81;21354;-46
2020/12/23 04:12:36;;;;;;;3.72;3.30;;;;;;;8.33;55.11;102455.80;1760142;81;21278;-46
2020/12/23 04:15:09;;;;;;;6.30;3.77;;;;;;;8.35;54.89;102455.41;1757456;81;21117;-47
2020/12/23 04:17:38;;;;;;;5.08;3.17;;;;;;;8.38;54.93;102452.86;1747481;81;21141;-47
2020/12/23 04:20:07;;;;;;;4.65;3.83;;;;;;;8.38;55.12;102445.97;1757233;81;21141;-46
2020/12/23 04:22:36;;;;;;;4.28;3.47;;;;;;;8.37;55.11;102451.11;1756269;81;21140;-46
2020/12/23 04:25:06;;;;;;;5.03;3.85;;;;;;;8.36;55.24;102454.56;1757918;81;21545;-46
2020/12/23 04:27:35;;;;;;;4.33;3.62;;;;;;;8.34;55.35;102457.56;1758231;81;21141;-47
2020/12/23 04:30:05;;;;;;;5.53;3.47;;;;;;;8.34;55.32;102459.74;1757853;81;21148;-46
2020/12/23 04:32:34;;;;;;;3.98;3.55;;;;;;;8.36;55.19;102461.05;1701283;83;21174;-46
2020/12/23 04:35:05;;;;;;;3.40;2.92;;;;;;;8.38;55.21;102450.27;1683733;83;21166;-46
2020/12/23 04:37:34;;;;;;;6.12;3.70;;;;;;;8.42;54.99;102439.97;1662478;85;21170;-46
2020/12/23 04:40:03;;;;;;;5.00;3.52;;;;;;;8.47;54.99;102432.26;1695507;83;21237;-47
2020/12/23 04:42:33;;;;;;;5.53;3.87;;;;;;;8.49;54.90;102430.55;1692488;83;21182;-47
2020/12/23 04:45:03;;;;;;;4.83;3.58;;;;;;;8.47;55.05;102432.26;1697200;83;21178;-47
2020/12/23 04:47:32;;;;;;;5.78;3.67;;;;;;;8.47;55.16;102427.06;1696001;83;21155;-47
2020/12/23 04:50:00;;;;;;;6.20;3.50;;;;;;;8.46;55.41;102425.30;1695130;83;21159;-47
2020/12/23 04:52:33;;;;;;;4.20;3.42;;;;;;;8.44;55.65;102427.02;1641183;85;21206;-47
2020/12/23 04:55:04;;;;;;;3.08;2.77;;;;;;;8.44;55.70;102424.41;1695329;83;21174;-46
2020/12/23 05:00:10;;;;;;;3.45;3.10;;;;;;;8.49;55.55;102420.17;1807911;79;21859;-46
2020/12/23 05:02:38;;;;;;;4.47;3.30;;;;;;;8.48;55.56;102422.30;1780704;80;21286;-46
2020/12/23 05:05:08;;;;;;;3.98;3.58;;;;;;;8.50;55.65;102422.78;1726838;83;21190;-46
2020/12/23 05:07:37;;;;;;;3.67;3.37;;;;;;;8.52;55.64;102419.78;1747966;81;21169;-46
2020/12/23 05:10:08;;;;;;;4.33;3.10;;;;;;;8.54;55.57;102421.09;1740217;81;21279;-46
2020/12/23 05:12:36;;;;;;;5.05;3.25;;;;;;;8.53;55.71;102421.95;1741892;81;21205;-47
2020/12/23 05:15:05;;;;;;;5.25;3.67;;;;;;;8.52;55.83;102427.98;1743728;81;21169;-46
2020/12/23 05:17:34;;;;;;;4.60;3.47;;;;;;;8.51;55.90;102424.95;1738545;81;21243;-45
2020/12/23 05:20:04;;;;;;;4.67;3.08;;;;;;;8.49;56.04;102420.17;1746058;81;21168;-46
2020/12/23 05:22:32;;;;;;;4.20;3.33;;;;;;;8.48;56.16;102413.23;1748518;81;21608;-46
2020/12/23 05:25:00;;;;;;;6.53;3.60;;;;;;;8.49;56.19;102414.98;1705434;81;21164;-46
2020/12/23 05:27:33;;;;;;;8.08;3.77;;;;;;;8.51;56.14;102415.88;1705520;81;21183;-46
2020/12/23 05:30:02;;;;;;;4.55;3.72;;;;;;;8.54;56.19;102414.60;1755683;81;21286;-46
2020/12/23 05:32:37;;;;;;;4.62;3.75;;;;;;;8.60;56.21;102423.76;1751260;81;21165;-47
2020/12/23 05:35:06;;;;;;;4.90;3.67;;;;;;;8.62;56.13;102422.05;1644641;86;21203;-47
2020/12/23 05:37:34;;;;;;;6.37;3.58;;;;;;;8.65;56.12;102419.52;1644737;87;21169;-46
2020/12/23 05:40:02;;;;;;;5.12;3.25;;;;;;;8.64;56.16;102421.64;1644692;87;21376;-47
2020/12/23 05:42:30;;;;;;;4.87;3.42;;;;;;;8.66;55.98;102419.94;1638973;87;21240;-46
2020/12/23 05:45:00;;;;;;;6.10;3.08;;;;;;;8.65;55.96;102422.11;1644595;87;21176;-47
2020/12/23 05:47:28;;;;;;;4.40;3.08;;;;;;;8.67;56.05;102425.59;1644832;87;21167;-46
2020/12/23 05:49:56;;;;;;;6.33;3.45;;;;;;;8.66;56.18;102429.91;1644582;87;21188;-47
2020/12/23 05:52:24;;;;;;;7.03;3.42;;;;;;;8.68;56.13;102426.02;1644735;87;21229;-46
2020/12/23 05:54:59;;;;;;;4.72;3.60;;;;;;;8.75;56.21;102430.45;1810073;79;22855;-46
2020/12/23 05:57:28;;;;;;;4.65;3.52;;;;;;;8.76;56.09;102439.96;1771022;80;21310;-46
2020/12/23 05:59:56;;;;;;;4.78;3.35;;;;;;;8.79;55.92;102429.21;1780104;80;21179;-46
2020/12/23 06:02:24;;;;;;;5.97;3.33;;;;;;;8.79;55.81;102433.11;1776809;80;21427;-46
2020/12/23 06:04:53;;;;;;;5.08;4.10;;;;;;;8.79;56.00;102436.13;1776898;80;21282;-46
2020/12/23 06:07:21;;;;;;;3.90;3.15;;;;;;;8.80;56.01;102436.55;1723294;81;21116;-46
2020/12/23 06:09:50;;;;;;;4.67;3.80;;;;;;;8.79;56.13;102438.72;1772826;80;21319;-46
2020/12/23 06:12:21;;;;;;;4.45;3.40;;;;;;;8.80;56.10;102437.43;1780048;80;21113;-46
2020/12/23 06:14:56;;;;;;;8.00;3.50;;;;;;;8.82;56.23;102432.28;1776047;80;21306;-46
2020/12/23 06:17:26;;;;;;;6.55;3.40;;;;;;;8.87;56.30;102443.16;1768680;80;21148;-47
2020/12/23 06:19:57;;;;;;;4.87;3.72;;;;;;;8.92;56.27;102449.70;1735579;82;21276;-47
2020/12/23 06:22:27;;;;;;;5.65;3.90;;;;;;;8.97;56.10;102456.69;1729545;82;21151;-47
2020/12/23 06:25:00;;;;;;;8.05;3.77;;;;;;;9.00;56.11;102454.55;1747242;82;21564;-47
2020/12/23 06:27:26;;;;;;;3.67;3.30;;;;;;;9.01;56.27;102447.19;1732457;82;21144;-46
2020/12/23 06:30:01;;;;;;;4.83;3.58;;;;;;;9.02;56.26;102434.67;1771492;79;22913;-46
2020/12/23 06:32:30;;;;;;;6.62;3.90;;;;;;;8.94;56.52;102438.91;1735189;82;21149;-46
2020/12/23 06:35:00;;;;;;;4.10;3.52;;;;;;;8.90;56.66;102446.22;1734847;82;21294;-46
2020/12/23 06:37:30;;;;;;;7.00;3.90;;;;;;;8.87;56.70;102446.16;1739944;82;21164;-46
2020/12/23 06:39:59;;;;;;;6.53;3.87;;;;;;;8.87;56.88;102450.94;1738150;82;21624;-47
2020/12/23 06:42:29;;;;;;;6.35;4.17;;;;;;;8.90;57.21;102451.41;1737877;82;21172;-47
2020/12/23 06:45:03;;;;;;;4.62;4.15;;;;;;;8.92;57.25;102453.59;1737377;82;21120;-47
2020/12/23 06:47:35;;;;;;;6.67;4.60;;;;;;;8.91;57.30;102455.73;1678359;84;21206;-47
2020/12/23 06:50:25;;;;;;;9.15;4.35;;;;;;;8.88;57.28;102455.26;1667697;86;21596;-48
2020/12/23 06:52:54;;;;;;;7.12;4.28;;;;;;;8.87;57.53;102457.84;1667260;86;21321;-48
2020/12/23 06:55:22;;;;;;;5.83;3.98;;;;;;;8.86;57.77;102451.78;1647749;86;21592;-47
2020/12/23 06:57:57;;;;;;;5.92;4.55;;;;;;;8.93;57.88;102450.13;1768160;79;22916;-47
2020/12/23 07:00:32;;;;;;;6.53;3.98;;;;;;;8.93;58.06;102450.13;1741468;82;21672;-46
2020/12/23 07:03:05;;;;;;;5.97;3.80;;;;;;;8.96;58.07;102448.89;1731673;82;21120;-47
2020/12/23 07:05:38;;;;;;;;;;;;;;;8.99;58.00;102447.19;1715244;82;21170;-46
2020/12/23 07:08:12;;;;;;;6.33;4.05;;;;;;;9.01;58.08;102443.30;1715656;82;20249;-46
2020/12/23 07:10:48;;;;;;;4.75;3.42;;;;;;;9.07;57.87;102445.97;1809489;79;22910;-46
2020/12/23 07:13:21;;;;;;;4.83;3.75;;;;;;;9.03;58.03;102453.73;1782170;80;21576;-46
2020/12/23 07:15:58;;;;;;;4.42;4.00;;;;;;;9.06;58.19;102449.84;1769613;80;21145;-47
2020/12/23 07:18:28;;;;;;;5.60;4.58;;;;;;;9.05;58.42;102454.16;1776862;80;21152;-46
2020/12/23 07:21:02;;;;;;;4.72;4.22;;;;;;;9.08;58.68;102454.22;1793482;80;21187;-47
2020/12/23 07:23:31;;;;;;;6.30;4.90;;;;;;;9.10;58.66;102448.61;1727853;83;21173;-47
2020/12/23 07:26:05;;;;;;;5.80;4.80;;;;;;;9.14;58.73;102455.58;1742672;81;21142;-47
2020/12/23 07:28:40;;;;;;;6.30;4.35;;;;;;;9.12;58.77;102457.29;1707652;83;21192;-47
2020/12/23 07:31:11;;;;;;;5.22;3.83;;;;;;;9.12;58.95;102452.09;1718744;83;21173;-46
2020/12/23 07:33:40;;;;;;;;;;;;;;;9.15;58.68;102458.60;1731573;83;21184;-46
2020/12/23 07:36:09;;;;;;;4.05;3.37;;;;;;;9.17;58.23;102460.78;1728211;83;20194;-47
2020/12/23 07:38:38;;;;;;;4.78;3.10;;;;;;;9.16;57.86;102450.39;1726403;83;21783;-47
2020/12/23 07:41:12;;;;;;;3.98;2.92;;;;;;;9.26;57.41;102454.83;1743346;81;21279;-46
2020/12/23 07:43:41;;;;;;;6.22;3.37;;;;;;;9.26;57.13;102461.32;1723324;83;21690;-47
2020/12/23 07:46:10;;;;;;;3.77;3.17;;;;;;;9.26;57.02;102460.90;1728491;83;21125;-46
2020/12/23 07:48:38;;;;;;;4.90;3.27;;;;;;;9.27;56.70;102458.77;1693824;83;21208;-46
2020/12/23 07:51:08;;;;;;;4.35;3.05;;;;;;;9.27;56.82;102460.06;1721621;83;21144;-46
2020/12/23 07:53:36;;;;;;;4.30;2.80;;;;;;;9.27;56.70;102456.17;1748775;81;21109;-46
2020/12/23 07:56:07;;;;;;;3.60;2.70;;;;;;;9.26;56.80;102459.60;1696683;83;21141;-46
2020/12/23 07:58:36;;;;;;;4.45;3.20;;;;;;;9.27;56.93;102453.57;1715845;83;21195;-46
2020/12/23 08:01:10;;;;;;;3.47;2.62;;;;;;;9.30;57.04;102461.38;1750716;81;21160;-46
2020/12/23 08:03:38;;;;;;;4.60;3.25;;;;;;;9.33;56.98;102457.52;1746987;81;21148;-46
2020/12/23 08:06:10;;;;;;;5.60;3.10;;;;;;;9.35;56.82;102455.81;1743903;81;21148;-46
2020/12/23 08:08:40;;;;;;;4.87;2.98;;;;;;;9.39;56.85;102454.11;1714703;83;21179;-46
2020/12/23 08:11:14;;;;;;;3.30;2.92;;;;;;;9.39;56.66;102448.50;1723997;82;21137;-46
2020/12/23 08:13:43;;;;;;;4.83;3.00;;;;;;;9.41;56.72;102445.48;1768392;81;21121;-46
2020/12/23 08:16:13;;;;;;;4.62;3.20;;;;;;;9.42;56.72;102454.13;1762448;81;21169;-46
2020/12/23 08:18:42;;;;;;;3.90;2.90;;;;;;;9.43;56.60;102459.36;1768465;80;21561;-46
2020/12/23 08:21:14;;;;;;;7.00;3.08;;;;;;;9.46;56.50;102453.33;1769621;81;21161;-47
2020/12/23 08:23:42;;;;;;;5.42;3.22;;;;;;;9.47;56.79;102449.86;1764511;81;21144;-47
2020/12/23 08:26:11;;;;;;;5.10;3.30;;;;;;;9.49;57.08;102445.55;1764024;81;21121;-47
2020/12/23 08:28:42;;;;;;;4.58;3.05;;;;;;;9.54;56.90;102444.72;1765092;81;21581;-47
2020/12/23 08:31:12;;;;;;;5.28;3.08;;;;;;;9.49;56.84;102441.23;1770992;81;21177;-47
2020/12/23 08:33:40;;;;;;;3.77;2.80;;;;;;;9.33;57.38;102441.06;1733104;82;21180;-45
2020/12/23 08:36:10;;;;;;;5.87;3.10;;;;;;;9.29;57.64;102432.38;1769491;81;21585;-45
2020/12/23 08:38:43;;;;;;;3.47;2.85;;;;;;;9.28;57.78;102429.73;1761188;80;21525;-48
2020/12/23 08:41:14;;;;;;;;;;;;;;;9.29;57.78;102427.18;1775262;81;21120;-47
2020/12/23 08:43:49;;;;;;;5.83;3.08;;;;;;;9.32;57.74;102427.19;1766576;81;20235;-47
2020/12/23 08:46:26;;;;;;;6.00;3.42;;;;;;;9.34;57.85;102413.79;1692452;83;21287;-47
2020/12/23 08:49:00;;;;;;;5.12;3.30;;;;;;;9.43;57.97;102407.39;1768217;79;22959;-46
2020/12/23 08:51:31;;;;;;;5.03;3.37;;;;;;;9.41;58.05;102407.81;1741133;82;21149;-47
2020/12/23 08:53:59;;;;;;;4.05;3.58;;;;;;;9.42;58.00;102400.44;1734765;82;21297;-47
2020/12/23 08:56:30;;;;;;;4.35;3.10;;;;;;;9.42;57.74;102395.24;1739282;82;21172;-47
2020/12/23 08:59:05;;;;;;;4.00;3.03;;;;;;;9.43;57.83;102397.00;1741094;82;21180;-46
2020/12/23 09:01:35;;;;;;;4.90;3.10;;;;;;;9.43;57.60;102395.70;1725407;82;21172;-47
2020/12/23 09:04:08;;;;;;;4.55;3.25;;;;;;;9.44;57.93;102380.53;1744946;82;21172;-47
2020/12/23 09:06:40;;;;;;;4.28;3.35;;;;;;;9.45;58.26;102377.09;1732239;82;21152;-47
2020/12/23 09:09:21;;;;;;;4.67;3.08;;;;;;;9.48;58.12;102369.31;1737449;82;21168;-46
2020/12/23 09:11:54;;;;;;;4.55;2.98;;;;;;;9.53;57.54;102374.13;1749372;82;21149;-47
2020/12/23 09:14:29;;;;;;;3.35;3.00;;;;;;;9.55;57.18;102364.63;1737282;82;21149;-47
2020/12/23 09:17:07;;;;;;;4.37;3.30;;;;;;;9.57;57.25;102364.20;1667873;85;21157;-47
2020/12/23 09:19:55;;;;;;;3.47;2.90;;;;;;;9.58;57.39;102365.08;1668080;86;21193;-46
2020/12/23 09:22:41;;;;;;;5.85;3.10;;;;;;;9.57;57.29;102358.13;1656344;86;21180;-47
2020/12/23 09:28:12;;;;;;;4.33;2.95;;;;;;;9.56;57.59;102348.61;1771423;79;22997;-46
2020/12/23 09:30:42;;;;;;;5.83;3.05;;;;;;;9.50;57.54;102346.81;1729635;82;21175;-46
2020/12/23 09:33:13;;;;;;;10.95;4.65;;;;;;;9.50;57.57;102348.11;1726907;82;21154;-45
2020/12/23 09:35:46;;;;;;;4.03;3.05;;;;;;;9.51;57.67;102338.17;1726905;83;21152;-45
2020/12/23 09:38:30;;;;;;;4.17;3.08;;;;;;;9.52;57.88;102345.55;1711569;83;21691;-45
2020/12/23 09:40:58;;;;;;;3.98;3.10;;;;;;;9.52;57.90;102350.74;1719299;83;21167;-47
2020/12/23 09:43:29;;;;;;;5.87;3.10;;;;;;;9.50;57.82;102332.52;1674458;86;21627;-46
2020/12/23 09:46:08;;;;;;;4.10;2.95;;;;;;;9.51;58.12;102338.17;1848709;76;22186;-46
2020/12/23 09:48:35;;;;;;;4.47;3.30;;;;;;;9.46;58.24;102335.95;1839757;78;21148;-46
2020/12/23 09:51:06;;;;;;;3.58;2.70;;;;;;;9.46;58.53;102344.20;1844482;78;21175;-47
2020/12/23 09:53:35;;;;;;;4.70;3.37;;;;;;;9.46;58.61;102341.15;1840746;78;21136;-46
2020/12/23 09:56:05;;;;;;;9.45;3.35;;;;;;;9.48;58.60;102340.73;1843505;77;21163;-46
2020/12/23 09:58:33;;;;;;;8.53;4.37;;;;;;;9.48;59.01;102338.13;1834392;77;21556;-46
2020/12/23 10:01:01;;;;;;;6.12;3.27;;;;;;;9.46;59.24;102341.15;1837667;78;21097;-46
2020/12/23 10:03:30;;;;;;;4.80;3.10;;;;;;;9.44;59.38;102335.07;1841043;78;21140;-45
2020/12/23 10:05:59;;;;;;;5.87;2.87;;;;;;;9.43;59.40;102335.06;1844397;77;21125;-46
2020/12/23 10:08:27;;;;;;;5.60;2.62;;;;;;;9.38;59.57;102326.34;1842565;78;21580;-47
2020/12/23 10:10:57;;;;;;;3.10;2.65;;;;;;;9.41;59.54;102320.77;1843616;77;21152;-47
2020/12/23 10:13:25;;;;;;;5.17;2.83;;;;;;;9.43;59.41;102322.95;1845167;77;21156;-47
2020/12/23 10:15:54;;;;;;;6.20;2.92;;;;;;;9.46;59.26;102329.45;1840677;78;21250;-46
2020/12/23 10:18:23;;;;;;;6.22;2.92;;;;;;;9.48;59.37;102319.94;1831414;78;21161;-46
2020/12/23 10:20:52;;;;;;;4.17;2.95;;;;;;;9.55;59.35;102319.14;1843010;77;21155;-47
2020/12/23 10:23:20;;;;;;;5.62;2.83;;;;;;;9.56;59.53;102325.22;1842972;77;21581;-46
2020/12/23 10:25:49;;;;;;;3.37;2.92;;;;;;;9.58;59.73;102321.75;1845589;77;21136;-47
2020/12/23 10:28:17;;;;;;;4.28;2.95;;;;;;;9.60;59.85;102322.63;1841425;77;21096;-48
2020/12/23 10:30:46;;;;;;;4.72;3.05;;;;;;;9.61;60.03;102320.48;1836077;78;21290;-47
2020/12/23 10:33:15;;;;;;;4.05;3.10;;;;;;;9.63;60.16;102321.36;1844512;78;21137;-47
2020/12/23 10:35:43;;;;;;;4.80;2.87;;;;;;;9.66;60.15;102325.30;1836939;78;21263;-47
2020/12/23 10:38:12;;;;;;;5.53;2.80;;;;;;;9.66;60.30;102305.80;1829661;78;21566;-47
2020/12/23 10:40:41;;;;;;;7.83;3.37;;;;;;;9.64;60.76;102310.09;1827483;78;21142;-47
2020/12/23 10:43:09;;;;;;;4.95;2.60;;;;;;;9.63;61.12;102303.17;1834732;78;21156;-47
2020/12/23 10:45:37;;;;;;;4.20;2.70;;;;;;;9.64;61.36;102304.05;1836163;78;21132;-48
2020/12/23 10:48:06;;;;;;;3.60;2.55;;;;;;;9.64;61.52;102300.16;1838227;78;21268;-47
2020/12/23 10:50:34;;;;;;;6.87;3.27;;;;;;;9.64;61.50;102294.50;1834620;78;21278;-47
2020/12/23 10:53:02;;;;;;;4.60;2.87;;;;;;;9.65;61.54;102297.55;1840655;78;21137;-48
2020/12/23 10:55:30;;;;;;;4.47;2.80;;;;;;;9.67;61.70;102295.83;1837223;78;21101;-47
2020/12/23 10:57:58;;;;;;;7.08;2.92;;;;;;;9.68;61.81;102287.61;1829084;77;21109;-48
2020/12/23 11:00:27;;;;;;;5.42;2.85;;;;;;;9.69;61.87;102281.12;1830623;78;21136;-48
2020/12/23 11:02:57;;;;;;;7.37;3.50;;;;;;;9.71;62.10;102270.30;1837400;78;21137;-47
2020/12/23 11:05:25;;;;;;;6.40;3.37;;;;;;;9.74;62.28;102269.03;1836005;77;21128;-47
2020/12/23 11:07:54;;;;;;;3.65;2.72;;;;;;;9.77;62.17;102269.03;1825869;78;21136;-48
2020/12/23 11:10:22;;;;;;;5.60;3.27;;;;;;;9.79;61.99;102275.11;1834291;78;21266;-47
2020/12/23 11:12:50;;;;;;;4.72;2.67;;;;;;;9.80;61.94;102270.36;1834458;78;21604;-47
2020/12/23 11:15:19;;;;;;;5.53;2.70;;;;;;;9.80;61.59;102268.19;1837024;78;21290;-47
2020/12/23 11:17:47;;;;;;;7.78;3.25;;;;;;;9.74;61.73;102266.43;1835408;78;21121;-47
2020/12/23 11:20:16;;;;;;;7.05;2.87;;;;;;;9.72;62.01;102262.95;1833934;78;21100;-48
2020/12/23 11:22:46;;;;;;;5.67;3.22;;;;;;;9.71;62.12;102262.92;1831745;78;21140;-47
2020/12/23 11:25:15;;;;;;;4.87;3.17;;;;;;;9.71;62.20;102258.60;1795899;78;21121;-47
2020/12/23 11:27:43;;;;;;;7.72;3.47;;;;;;;9.74;62.16;102257.75;1830922;78;21136;-47
2020/12/23 11:30:12;;;;;;;6.17;3.45;;;;;;;9.74;62.33;102261.23;1834219;78;21250;-47
2020/12/23 11:32:40;;;;;;;6.33;2.50;;;;;;;9.72;62.46;102255.58;1833380;78;21156;-47
2020/12/23 11:35:09;;;;;;;4.20;2.30;;;;;;;9.69;62.71;102255.12;1836633;78;21140;-47
2020/12/23 11:37:37;;;;;;;4.83;2.62;;;;;;;9.69;62.94;102257.72;1835817;78;21553;-47
2020/12/23 11:40:05;;;;;;;4.05;3.15;;;;;;;9.70;63.11;102247.78;1834551;78;21137;-47
2020/12/23 11:42:41;;;;;;;5.72;3.17;;;;;;;9.71;63.26;102251.23;1835525;78;21113;-47
2020/12/23 11:45:05;;;;;;;5.40;2.55;;;;;;;9.68;63.49;102257.30;1835584;78;21589;-47
2020/12/23 11:47:34;;;;;;;5.62;2.92;;;;;;;9.67;63.72;102259.45;1835212;78;21282;-47
2020/12/23 11:50:04;;;;;;;12.75;3.22;;;;;;;9.65;64.12;102258.56;1828164;78;21116;-48
2020/12/23 11:52:32;;;;;;;5.50;3.02;;;;;;;9.65;64.37;102252.07;1836565;78;21728;-47